Decoded Metar for SOCA (CAYENNE in FRENCH GUYANA) (IATA:CAY) | Meteo·Mobile Aviation Weather
aviador You're here:

SOCA Decoded Metar

CAYENNE in FRENCH GUYANA
Report Time2018-12-19 05:30:00
UTC Time2018-12-19 05:43:35
Flight Rules mvfr MVFR
Wind070° at 08 kt
W.Decomp.*RWY 08: 7.9 kt HW 1.0 kt RCW
W.Rank070° ranks 1
Current wind is below 070° avg. (8.9)
Visibility9999 m
Phenomena:N/A
Clouds:Broken 017 Hf
Expected CloudBase > 800 ft AGL from Temp-Dew spread
Ceiling1,700 ft
Temp26°C (ISA +11)
Dew Point24°C (89% RH)
QNH1012 hPa
Density Alt1,732 ft
Elevation30 ft
Report Wrong Elevation
Raw Report
METAR SOCA 190530Z AUTO 07008KT 9999 BKN017/// ///TCU 26/24 Q1012 TEMPO
4000 SHRA=

Extra information for SOCA:More info

Metar Taf Metar & Taf Last 4 Metars F.Rules Stats Wind Profile Meteogram Temp Stats Airport Information Weather charts Add Link Nearby VenuesMetar ALERT Operation Metar Decoded Social comments